createdAt,value
2019-05-20T00:02:28.321Z,8.13
2019-05-20T00:04:55.433Z,7.42
2019-05-20T00:07:24.419Z,8.10
2019-05-20T00:09:53.529Z,7.40
2019-05-20T00:12:22.432Z,7.45
2019-05-20T00:14:51.568Z,7.22
2019-05-20T00:17:20.591Z,7.72
2019-05-20T00:19:50.843Z,7.75
2019-05-20T00:22:20.046Z,7.70
2019-05-20T00:24:49.071Z,7.20
2019-05-20T00:27:18.051Z,7.30
2019-05-20T00:29:46.955Z,6.28
2019-05-20T00:32:16.536Z,7.12
2019-05-20T00:34:45.532Z,7.55
2019-05-20T00:37:14.614Z,6.85
2019-05-20T00:39:43.746Z,7.30
2019-05-20T00:42:12.742Z,6.95
2019-05-20T00:44:41.726Z,7.17
2019-05-20T00:47:11.237Z,7.40
2019-05-20T00:49:40.312Z,7.40
2019-05-20T00:52:09.449Z,7.55
2019-05-20T00:54:38.581Z,6.58
2019-05-20T00:57:07.729Z,6.37
2019-05-20T00:59:36.717Z,6.83
2019-05-20T01:02:05.750Z,6.20
2019-05-20T01:04:34.682Z,6.28
2019-05-20T01:07:03.629Z,5.87
2019-05-20T01:09:32.648Z,6.90
2019-05-20T01:12:01.636Z,6.87
2019-05-20T01:14:30.648Z,6.40
2019-05-20T01:16:59.766Z,6.25
2019-05-20T01:19:28.683Z,6.58
2019-05-20T01:21:57.751Z,6.62
2019-05-20T01:24:26.700Z,6.75
2019-05-20T01:26:55.842Z,6.37
2019-05-20T01:29:24.994Z,6.05
2019-05-20T01:31:54.110Z,6.65
2019-05-20T01:34:23.226Z,6.25
2019-05-20T01:36:52.356Z,6.03
2019-05-20T01:39:21.445Z,6.22
2019-05-20T01:41:50.491Z,6.40
2019-05-20T01:44:19.475Z,6.08
2019-05-20T01:46:48.636Z,5.83
2019-05-20T01:49:17.781Z,6.17
2019-05-20T01:51:46.800Z,6.28
2019-05-20T01:54:15.789Z,5.95
2019-05-20T01:56:44.909Z,6.33
2019-05-20T01:59:14.009Z,6.67
2019-05-20T02:01:43.067Z,6.00
2019-05-20T02:04:12.099Z,6.50
2019-05-20T02:06:41.136Z,5.70
2019-05-20T02:09:10.259Z,6.33
2019-05-20T02:11:39.245Z,6.97
2019-05-20T02:14:12.305Z,6.80
2019-05-20T02:16:41.356Z,6.83
2019-05-20T02:19:10.356Z,7.37
2019-05-20T02:21:39.443Z,6.80
2019-05-20T02:24:08.538Z,6.70
2019-05-20T02:26:37.515Z,7.10
2019-05-20T02:29:06.703Z,6.80
2019-05-20T02:31:35.704Z,7.97
2019-05-20T02:34:04.789Z,7.10
2019-05-20T02:36:33.862Z,7.30
2019-05-20T02:39:04.472Z,7.75
2019-05-20T02:41:33.822Z,7.62
2019-05-20T02:44:02.964Z,8.03
2019-05-20T02:46:32.092Z,7.62
2019-05-20T02:49:01.092Z,8.38
2019-05-20T02:51:33.350Z,8.58
2019-05-20T02:54:03.231Z,8.78
2019-05-20T02:56:32.340Z,9.30
2019-05-20T02:59:01.519Z,9.50
2019-05-20T03:01:30.567Z,9.83
2019-05-20T03:04:11.004Z,9.50
2019-05-20T03:06:30.380Z,9.58
2019-05-20T03:08:59.433Z,10.28
2019-05-20T03:11:28.505Z,10.35
2019-05-20T03:13:57.681Z,10.15
2019-05-20T03:16:26.837Z,10.98
2019-05-20T03:18:55.975Z,11.43
2019-05-20T03:21:25.081Z,10.93
2019-05-20T03:23:54.095Z,12.43
2019-05-20T03:26:23.163Z,12.25
2019-05-20T03:28:52.333Z,12.43
2019-05-20T03:31:21.482Z,12.07
2019-05-20T03:33:50.556Z,12.28
2019-05-20T03:36:19.771Z,12.98
2019-05-20T03:38:48.910Z,12.53
2019-05-20T03:41:17.953Z,13.65
2019-05-20T03:43:46.941Z,12.73
2019-05-20T03:46:16.107Z,12.93
2019-05-20T03:48:45.147Z,14.28
2019-05-20T03:51:14.223Z,15.23
2019-05-20T03:53:43.217Z,14.87
2019-05-20T03:56:12.219Z,15.30
2019-05-20T03:58:41.300Z,15.53
2019-05-20T04:01:10.482Z,15.13
2019-05-20T04:03:39.569Z,15.55
2019-05-20T04:06:08.690Z,15.65
2019-05-20T04:08:37.856Z,15.38
2019-05-20T04:11:06.842Z,15.68
2019-05-20T04:13:35.889Z,17.42
2019-05-20T04:16:05.026Z,17.42
2019-05-20T04:18:34.103Z,16.75
2019-05-20T04:21:03.246Z,17.27
2019-05-20T04:23:32.300Z,17.17
2019-05-20T04:26:01.362Z,18.10
2019-05-20T04:28:30.496Z,18.00
2019-05-20T04:30:59.563Z,20.10
2019-05-20T04:33:28.626Z,18.67
2019-05-20T04:35:57.631Z,19.02
2019-05-20T04:38:26.744Z,18.85
2019-05-20T04:40:55.873Z,18.90
2019-05-20T04:43:24.930Z,19.23
2019-05-20T04:45:54.007Z,19.17
2019-05-20T04:48:23.027Z,19.55
2019-05-20T04:50:52.115Z,19.50
2019-05-20T04:53:21.126Z,19.10
2019-05-20T04:55:50.188Z,20.45
2019-05-20T04:58:19.119Z,19.95
2019-05-20T05:00:55.729Z,19.77
2019-05-20T05:03:24.893Z,20.27
2019-05-20T05:05:54.028Z,19.70
2019-05-20T05:08:23.505Z,20.23
2019-05-20T05:10:52.879Z,21.33
2019-05-20T05:13:22.642Z,19.57
2019-05-20T05:15:51.731Z,20.85
2019-05-20T05:18:21.322Z,21.90
2019-05-20T05:20:50.418Z,21.33
2019-05-20T05:23:19.502Z,21.30
2019-05-20T05:25:48.667Z,22.07
2019-05-20T05:28:17.723Z,22.35
2019-05-20T05:30:47.486Z,22.73
2019-05-20T05:33:16.600Z,21.90
2019-05-20T05:35:53.339Z,23.07
2019-05-20T05:38:16.439Z,22.22
2019-05-20T05:40:45.447Z,23.20
2019-05-20T05:43:14.540Z,22.20
2019-05-20T05:45:43.531Z,22.42
2019-05-20T05:48:12.631Z,23.05
2019-05-20T05:50:41.799Z,22.52
2019-05-20T05:53:10.971Z,22.85
2019-05-20T05:55:40.129Z,22.27
2019-05-20T05:58:09.264Z,23.00
2019-05-20T06:00:38.344Z,22.82
2019-05-20T06:03:07.410Z,22.20
2019-05-20T06:05:36.487Z,21.45
2019-05-20T06:08:05.627Z,22.32
2019-05-20T06:10:35.869Z,23.02
2019-05-20T06:13:05.378Z,23.18
2019-05-20T06:15:34.451Z,21.40
2019-05-20T06:18:03.652Z,20.32
2019-05-20T06:20:32.828Z,21.90
2019-05-20T06:23:01.913Z,20.25
2019-05-20T06:25:31.077Z,22.32
2019-05-20T06:28:00.221Z,22.25
2019-05-20T06:30:41.433Z,21.93
2019-05-20T06:33:10.578Z,21.75
2019-05-20T06:35:39.770Z,20.37
2019-05-20T06:38:13.924Z,19.70
2019-05-20T06:40:42.998Z,20.27
2019-05-20T06:43:12.238Z,20.82
2019-05-20T06:45:41.343Z,23.55
2019-05-20T06:48:10.295Z,22.25
2019-05-20T06:50:39.373Z,23.62
2019-05-20T06:53:08.453Z,23.38
2019-05-20T06:55:37.571Z,23.90
2019-05-20T06:58:06.587Z,23.27
2019-05-20T07:00:36.663Z,22.65
2019-05-20T07:03:06.396Z,22.95
2019-05-20T07:05:35.624Z,22.90
2019-05-20T07:08:04.923Z,23.95
2019-05-20T07:10:34.107Z,23.65
2019-05-20T07:13:04.672Z,23.40
2019-05-20T07:15:33.810Z,23.83
2019-05-20T07:18:02.862Z,24.52
2019-05-20T07:20:32.050Z,23.57
2019-05-20T07:23:01.287Z,25.30
2019-05-20T07:25:30.424Z,23.87
2019-05-20T07:28:00.921Z,22.87
2019-05-20T07:30:30.063Z,23.50
2019-05-20T07:32:59.287Z,22.93
2019-05-20T07:35:30.730Z,22.85
2019-05-20T07:37:59.426Z,24.12
2019-05-20T07:40:33.869Z,23.42
2019-05-20T07:43:05.447Z,23.67
2019-05-20T07:45:36.495Z,23.25
2019-05-20T07:48:06.119Z,23.42
2019-05-20T07:50:38.379Z,23.45
2019-05-20T07:53:08.922Z,23.27
2019-05-20T07:55:42.999Z,24.25
2019-05-20T07:58:14.198Z,23.50
2019-05-20T08:00:43.328Z,24.43
2019-05-20T08:03:12.588Z,23.42
2019-05-20T08:05:41.668Z,24.00
2019-05-20T08:08:10.843Z,22.48
2019-05-20T08:10:40.033Z,23.45
2019-05-20T08:13:09.219Z,22.80
2019-05-20T08:15:38.370Z,23.45
2019-05-20T08:18:07.474Z,22.52
2019-05-20T08:20:36.647Z,22.77
2019-05-20T08:23:05.787Z,21.00
2019-05-20T08:25:35.105Z,22.62
2019-05-20T08:28:04.323Z,21.02
2019-05-20T08:30:35.360Z,22.70
2019-05-20T08:33:05.168Z,23.32
2019-05-20T08:35:34.339Z,22.73
2019-05-20T08:38:03.474Z,22.25
2019-05-20T08:40:32.616Z,21.73
2019-05-20T08:43:01.781Z,22.17
2019-05-20T08:45:30.879Z,22.70
2019-05-20T08:47:59.905Z,23.20
2019-05-20T08:50:29.095Z,22.95
2019-05-20T08:52:58.172Z,22.40
2019-05-20T08:55:27.287Z,22.15
2019-05-20T08:57:56.451Z,22.27
2019-05-20T09:00:25.846Z,21.62
2019-05-20T09:02:55.298Z,22.65
2019-05-20T09:05:27.897Z,21.48
2019-05-20T09:08:03.025Z,22.10
2019-05-20T09:10:26.014Z,22.02
2019-05-20T09:12:55.050Z,22.75
2019-05-20T09:15:24.198Z,22.00
2019-05-20T09:17:53.369Z,21.20
2019-05-20T09:20:23.173Z,20.72
2019-05-20T09:22:52.387Z,21.23
2019-05-20T09:25:31.174Z,21.87
2019-05-20T09:28:01.160Z,21.27
2019-05-20T09:30:30.326Z,21.07
2019-05-20T09:33:01.615Z,21.52
2019-05-20T09:35:30.686Z,21.87
2019-05-20T09:37:59.917Z,20.27
2019-05-20T09:40:43.408Z,20.37
2019-05-20T09:43:12.637Z,19.70
2019-05-20T09:45:41.805Z,19.48
2019-05-20T09:48:10.978Z,18.92
2019-05-20T09:50:40.122Z,19.87
2019-05-20T09:53:09.434Z,19.23
2019-05-20T09:55:38.631Z,20.23
2019-05-20T09:58:07.923Z,19.57
2019-05-20T10:00:37.099Z,18.75
2019-05-20T10:03:07.471Z,18.62
2019-05-20T10:05:37.643Z,20.20
2019-05-20T10:08:07.440Z,19.35
2019-05-20T10:10:36.752Z,19.80
2019-05-20T10:13:06.217Z,19.75
2019-05-20T10:15:35.566Z,19.57
2019-05-20T10:18:04.739Z,18.98
2019-05-20T10:20:34.006Z,19.40
2019-05-20T10:23:03.144Z,19.80
2019-05-20T10:25:32.305Z,20.30
2019-05-20T10:28:01.460Z,20.08
2019-05-20T10:30:30.563Z,20.88
2019-05-20T10:32:59.607Z,20.68
2019-05-20T10:35:28.693Z,20.37
2019-05-20T10:37:57.769Z,21.70
2019-05-20T10:40:26.901Z,20.15
2019-05-20T10:42:55.828Z,19.82
2019-05-20T10:45:24.986Z,21.30
2019-05-20T10:47:54.142Z,19.48
2019-05-20T10:50:23.231Z,20.15
2019-05-20T10:52:52.139Z,19.52
2019-05-20T10:55:21.152Z,19.32
2019-05-20T10:57:50.169Z,19.07
2019-05-20T11:00:20.045Z,19.40
2019-05-20T11:02:49.090Z,19.32
2019-05-20T11:05:18.941Z,18.90
2019-05-20T11:07:48.190Z,19.77
2019-05-20T11:10:18.963Z,19.48
2019-05-20T11:12:47.989Z,19.20
2019-05-20T11:15:17.354Z,21.52
2019-05-20T11:17:46.362Z,20.70
2019-05-20T11:20:15.408Z,19.40
2019-05-20T11:22:44.382Z,19.48
2019-05-20T11:25:13.511Z,21.90
2019-05-20T11:27:42.582Z,20.27
2019-05-20T11:30:13.127Z,20.27
2019-05-20T11:32:42.249Z,21.95
2019-05-20T11:35:11.771Z,20.68
2019-05-20T11:37:40.734Z,20.45
2019-05-20T11:40:10.961Z,21.87
2019-05-20T11:42:40.854Z,21.45
2019-05-20T11:45:10.481Z,21.73
2019-05-20T11:47:39.515Z,21.05
2019-05-20T11:50:10.112Z,21.87
2019-05-20T11:52:39.246Z,23.00
2019-05-20T11:55:09.061Z,22.55
2019-05-20T11:57:38.163Z,22.20
2019-05-20T12:00:07.826Z,22.62
2019-05-20T12:02:36.713Z,22.52
2019-05-20T12:05:06.434Z,24.25
2019-05-20T12:07:35.421Z,22.65
2019-05-20T12:10:05.147Z,23.30
2019-05-20T12:12:34.201Z,23.50
2019-05-20T12:15:04.292Z,23.73
2019-05-20T12:17:33.898Z,23.90
2019-05-20T12:20:04.244Z,23.52
2019-05-20T12:22:33.581Z,24.00
2019-05-20T12:25:02.532Z,24.87
2019-05-20T12:27:31.481Z,25.27
2019-05-20T12:30:00.592Z,24.57
2019-05-20T12:32:29.557Z,24.80
2019-05-20T12:34:58.535Z,22.07
2019-05-20T12:37:27.450Z,24.25
2019-05-20T12:40:06.686Z,25.25
2019-05-20T12:42:27.102Z,26.97
2019-05-20T12:44:56.140Z,26.85
2019-05-20T12:47:25.108Z,26.70
2019-05-20T12:49:54.490Z,26.45
2019-05-20T12:52:23.473Z,23.05
2019-05-20T12:55:06.681Z,21.73
2019-05-20T12:57:23.034Z,22.17
2019-05-20T12:59:52.098Z,22.95
2019-05-20T13:02:21.144Z,22.80
2019-05-20T13:04:50.148Z,23.25
2019-05-20T13:07:19.109Z,25.08
2019-05-20T13:09:48.142Z,27.98
2019-05-20T13:12:17.132Z,26.62
2019-05-20T13:14:46.067Z,27.05
2019-05-20T13:17:15.143Z,26.48
2019-05-20T13:19:44.130Z,26.33
2019-05-20T13:22:13.226Z,24.23
2019-05-20T13:24:42.328Z,21.10
2019-05-20T13:27:11.434Z,17.10
2019-05-20T13:29:40.462Z,16.45
2019-05-20T13:32:09.616Z,13.22
2019-05-20T13:34:38.761Z,10.82
2019-05-20T13:37:07.897Z,9.68
2019-05-20T13:39:38.572Z,8.00
2019-05-20T13:42:07.620Z,6.80
2019-05-20T13:44:36.734Z,8.50
2019-05-20T13:47:05.968Z,7.85
2019-05-20T13:49:35.123Z,7.40
2019-05-20T13:52:04.188Z,7.00
2019-05-20T13:54:33.255Z,7.05
2019-05-20T13:57:02.202Z,7.17
2019-05-20T13:59:31.344Z,8.28
2019-05-20T14:02:00.437Z,8.95
2019-05-20T14:04:29.510Z,8.90
2019-05-20T14:06:58.608Z,9.30
2019-05-20T14:09:27.710Z,9.03
2019-05-20T14:11:56.791Z,8.55
2019-05-20T14:14:25.796Z,8.68
2019-05-20T14:16:54.850Z,9.10
2019-05-20T14:19:23.917Z,8.58
2019-05-20T14:21:52.956Z,8.98
2019-05-20T14:24:22.006Z,8.95
2019-05-20T14:26:51.124Z,7.95
2019-05-20T14:29:20.260Z,8.85
2019-05-20T14:31:49.423Z,8.03
2019-05-20T14:34:18.613Z,7.85
2019-05-20T14:36:52.155Z,8.15
2019-05-20T14:39:18.459Z,8.68
2019-05-20T14:41:47.579Z,8.18
2019-05-20T14:44:16.677Z,9.13
2019-05-20T14:46:45.758Z,8.48
2019-05-20T14:49:14.923Z,8.98
2019-05-20T14:51:43.997Z,7.87
2019-05-20T14:54:13.024Z,6.80
2019-05-20T14:56:42.012Z,6.85
2019-05-20T14:59:11.029Z,6.90
2019-05-20T15:01:40.036Z,7.78
2019-05-20T15:04:09.175Z,8.28
2019-05-20T15:06:38.198Z,6.95
2019-05-20T15:09:07.499Z,6.62
2019-05-20T15:11:38.620Z,7.95
2019-05-20T15:14:07.452Z,6.47
2019-05-20T15:16:36.622Z,6.15
2019-05-20T15:19:05.766Z,5.62
2019-05-20T15:21:34.878Z,6.50
2019-05-20T15:24:04.067Z,6.35
2019-05-20T15:26:33.115Z,6.83
2019-05-20T15:29:03.467Z,6.65
2019-05-20T15:31:32.675Z,6.40
2019-05-20T15:34:01.849Z,6.97
2019-05-20T15:36:30.999Z,7.50
2019-05-20T15:39:00.074Z,7.53
2019-05-20T15:41:29.349Z,7.53
2019-05-20T15:43:58.517Z,7.00
2019-05-20T15:46:27.671Z,7.08
2019-05-20T15:48:56.736Z,8.10
2019-05-20T15:51:25.861Z,7.58
2019-05-20T15:53:54.903Z,7.78
2019-05-20T15:56:23.933Z,8.55
2019-05-20T15:58:52.984Z,8.63
2019-05-20T16:01:22.060Z,8.68
2019-05-20T16:03:51.581Z,8.65
2019-05-20T16:06:21.138Z,9.08
2019-05-20T16:08:50.262Z,9.08
2019-05-20T16:11:19.342Z,7.95
2019-05-20T16:13:48.307Z,7.72
2019-05-20T16:16:17.466Z,6.83
2019-05-20T16:18:46.455Z,7.30
2019-05-20T16:21:15.439Z,8.28
2019-05-20T16:23:44.527Z,8.43
2019-05-20T16:26:13.700Z,9.23
2019-05-20T16:28:42.821Z,8.63
2019-05-20T16:31:12.027Z,8.75
2019-05-20T16:33:41.064Z,9.43
2019-05-20T16:36:10.231Z,8.60
2019-05-20T16:38:39.319Z,7.83
2019-05-20T16:41:08.407Z,8.50
2019-05-20T16:43:37.333Z,8.65
2019-05-20T16:46:06.328Z,7.92
2019-05-20T16:48:35.391Z,8.75
2019-05-20T16:51:04.562Z,8.78
2019-05-20T16:53:33.630Z,9.30
2019-05-20T16:56:02.649Z,9.63
2019-05-20T16:58:31.654Z,9.98
2019-05-20T17:01:00.730Z,12.00
2019-05-20T17:03:29.870Z,12.58
2019-05-20T17:05:58.887Z,12.78
2019-05-20T17:08:28.036Z,10.98
2019-05-20T17:10:57.159Z,10.30
2019-05-20T17:13:26.251Z,11.80
2019-05-20T17:15:55.172Z,12.50
2019-05-20T17:18:24.192Z,13.28
2019-05-20T17:20:53.258Z,14.03
2019-05-20T17:23:22.273Z,13.72
2019-05-20T17:25:51.456Z,13.48
2019-05-20T17:28:20.625Z,14.03
2019-05-20T17:30:49.665Z,13.62
2019-05-20T17:33:18.825Z,14.60
2019-05-20T17:35:47.987Z,15.23
2019-05-20T17:38:17.063Z,15.15
2019-05-20T17:40:46.217Z,15.28
2019-05-20T17:43:15.223Z,15.70
2019-05-20T17:45:44.314Z,16.07
2019-05-20T17:48:13.366Z,16.50
2019-05-20T17:50:42.730Z,16.50
2019-05-20T17:53:11.804Z,17.82
2019-05-20T17:55:41.047Z,17.48
2019-05-20T17:58:10.169Z,17.62
2019-05-20T18:00:39.400Z,18.73
2019-05-20T18:03:09.180Z,18.70
2019-05-20T18:05:38.312Z,17.45
2019-05-20T18:08:07.490Z,17.62
2019-05-20T18:10:36.476Z,19.00
2019-05-20T18:13:05.870Z,19.07
2019-05-20T18:15:35.028Z,19.10
2019-05-20T18:18:04.166Z,19.70
2019-05-20T18:20:33.501Z,20.32
2019-05-20T18:23:02.736Z,21.35
2019-05-20T18:25:32.089Z,20.85
2019-05-20T18:28:01.371Z,19.73
2019-05-20T18:30:30.752Z,19.62
2019-05-20T18:33:00.007Z,21.02
2019-05-20T18:35:29.483Z,20.90
2019-05-20T18:37:58.769Z,20.92
2019-05-20T18:40:28.028Z,21.40
2019-05-20T18:42:57.359Z,21.87
2019-05-20T18:45:26.619Z,23.45
2019-05-20T18:47:55.897Z,23.22
2019-05-20T18:50:25.073Z,22.30
2019-05-20T18:52:54.322Z,23.10
2019-05-20T18:55:23.569Z,24.37
2019-05-20T18:57:52.873Z,22.42
2019-05-20T19:00:22.604Z,22.07
2019-05-20T19:02:51.863Z,23.30
2019-05-20T19:05:20.978Z,21.70
2019-05-20T19:07:50.301Z,21.05
2019-05-20T19:10:19.751Z,22.90
2019-05-20T19:12:49.059Z,21.93
2019-05-20T19:15:18.801Z,22.52
2019-05-20T19:17:48.016Z,21.02
2019-05-20T19:20:17.321Z,22.25
2019-05-20T19:22:46.392Z,21.80
2019-05-20T19:25:15.852Z,22.55
2019-05-20T19:27:44.881Z,23.00
2019-05-20T19:30:13.965Z,24.25
2019-05-20T19:32:43.054Z,24.10
2019-05-20T19:35:12.340Z,22.93
2019-05-20T19:37:41.364Z,22.58
2019-05-20T19:40:10.569Z,20.90
2019-05-20T19:42:39.796Z,18.85
2019-05-20T19:45:09.323Z,16.27
2019-05-20T19:47:38.420Z,17.27
2019-05-20T19:50:07.833Z,14.87
2019-05-20T19:52:36.985Z,15.72
2019-05-20T19:55:06.291Z,13.88
2019-05-20T19:57:35.403Z,11.68
2019-05-20T20:00:05.146Z,10.13
2019-05-20T20:02:34.152Z,10.43
2019-05-20T20:05:03.542Z,11.28
2019-05-20T20:07:32.540Z,11.05
2019-05-20T20:10:01.745Z,10.05
2019-05-20T20:12:30.933Z,9.93
2019-05-20T20:15:00.206Z,10.32
2019-05-20T20:17:29.294Z,9.50
2019-05-20T20:19:58.436Z,10.45
2019-05-20T20:22:27.621Z,10.30
2019-05-20T20:24:56.743Z,10.20
2019-05-20T20:27:25.856Z,9.90
2019-05-20T20:29:54.839Z,9.05
2019-05-20T20:32:37.614Z,8.95
2019-05-20T20:34:55.563Z,8.75
2019-05-20T20:37:25.668Z,9.13
2019-05-20T20:39:54.754Z,7.97
2019-05-20T20:42:24.541Z,8.03
2019-05-20T20:44:54.516Z,8.53
2019-05-20T20:47:24.622Z,8.28
2019-05-20T21:03:42.610Z,6.65
2019-05-20T21:06:11.786Z,5.10
2019-05-20T21:08:40.882Z,5.10
2019-05-20T21:11:10.085Z,5.42
2019-05-20T21:13:39.231Z,5.97
2019-05-20T21:16:08.235Z,6.15
2019-05-20T21:18:37.425Z,6.03
2019-05-20T21:21:06.607Z,6.28
2019-05-20T21:23:38.002Z,5.80
2019-05-20T21:26:06.468Z,5.70
2019-05-20T21:28:35.526Z,5.65
2019-05-20T21:31:04.569Z,5.55
2019-05-20T21:33:33.771Z,5.97
2019-05-20T21:36:02.854Z,5.90
2019-05-20T21:38:31.841Z,7.37
2019-05-20T21:41:00.923Z,7.10
2019-05-20T21:43:29.844Z,7.00
2019-05-20T21:45:58.904Z,8.25
2019-05-20T21:48:28.058Z,8.80
2019-05-20T21:50:56.988Z,7.90
2019-05-20T21:53:26.142Z,8.13
2019-05-20T21:55:55.238Z,8.13
2019-05-20T21:58:24.331Z,7.58
2019-05-20T22:00:54.776Z,7.55
2019-05-20T22:03:25.262Z,7.15
2019-05-20T22:05:54.607Z,6.83
2019-05-20T22:08:23.741Z,7.67
2019-05-20T22:10:52.820Z,7.22
2019-05-20T22:13:21.944Z,8.48
2019-05-20T22:15:51.035Z,9.73
2019-05-20T22:18:20.109Z,10.28
2019-05-20T22:20:49.056Z,10.78
2019-05-20T22:23:42.896Z,10.98
2019-05-20T22:26:12.037Z,10.60
2019-05-20T22:28:41.061Z,10.28
2019-05-20T22:31:10.051Z,10.45
2019-05-20T22:33:42.336Z,9.45
2019-05-20T22:36:09.729Z,9.33
2019-05-20T22:38:39.110Z,8.08
2019-05-20T22:41:08.247Z,7.67
2019-05-20T22:43:37.280Z,6.85
2019-05-20T22:46:06.319Z,5.70
2019-05-20T22:48:35.306Z,5.50
2019-05-20T22:51:04.390Z,4.08
2019-05-20T22:53:33.371Z,3.00
2019-05-20T22:56:02.494Z,3.80
2019-05-20T22:58:31.555Z,3.52
2019-05-20T23:01:00.555Z,4.20
2019-05-20T23:03:29.695Z,4.40
2019-05-20T23:05:58.720Z,4.05
2019-05-20T23:08:27.814Z,3.60
2019-05-20T23:10:56.744Z,3.70
2019-05-20T23:13:25.976Z,3.70
2019-05-20T23:15:55.757Z,3.83
2019-05-20T23:18:24.939Z,3.83
2019-05-20T23:20:54.001Z,4.03
2019-05-20T23:23:23.079Z,3.10
2019-05-20T23:25:53.035Z,2.50
2019-05-20T23:28:22.301Z,2.85
2019-05-20T23:30:51.272Z,2.85
2019-05-20T23:33:20.260Z,2.50
2019-05-20T23:35:49.247Z,2.62
2019-05-20T23:38:18.254Z,2.65
2019-05-20T23:40:47.327Z,3.30
2019-05-20T23:43:16.299Z,3.45
2019-05-20T23:45:45.339Z,3.50
2019-05-20T23:48:14.319Z,4.53
2019-05-20T23:50:43.427Z,5.67
2019-05-20T23:53:12.406Z,5.90
2019-05-20T23:55:41.464Z,7.28
2019-05-20T23:58:10.535Z,6.75
